Bearskin Lake, Canada
Current Conditions -  °F | °C
As of 4:00 PM on Monday 20 Oct 2014 (Local Time) from CYTL Reporting Station
Overcast Overcast  
Wind Chill: 28°   Ceiling: 900
Heat Index: 34°   Visibility: 9mi
Dew Point: 32°   Wind: 7mph
Humidity: 93%   Direction: 300°WNW
Pressure: 30.14"   Gusts: NA
Location:  53.93°N, 90.98°W
Report Text: CYTL 202100Z AUTO 30006KT 250V350 9SM OVC009 01/00 A3014 RMK TS/LTNG TEMPO UNAVBL SLP219
Loading
Personal Weather Stations






























Interactive Weather Map
Tropical Storm Tracking
New forecast layout! Learn more

10-Day Weather Forecast

Advertisements
Track Severe Weather on mobile